createdAt,value
2023-03-07T00:06:40.977Z,7.35
2023-03-07T00:17:02.655Z,7.50
2023-03-07T00:27:24.057Z,6.65
2023-03-07T00:37:45.312Z,7.38
2023-03-07T00:48:06.793Z,7.72
2023-03-07T00:58:30.502Z,7.70
2023-03-07T01:08:51.992Z,7.82
2023-03-07T01:19:13.281Z,7.85
2023-03-07T01:29:35.407Z,7.45
2023-03-07T01:39:56.651Z,7.50
2023-03-07T01:50:19.084Z,7.35
2023-03-07T02:00:42.062Z,7.30
2023-03-07T02:11:03.960Z,7.43
2023-03-07T02:21:49.728Z,5.63
2023-03-07T02:32:11.116Z,6.85
2023-03-07T02:42:34.083Z,7.38
2023-03-07T02:53:00.138Z,7.00
2023-03-07T03:03:21.785Z,7.20
2023-03-07T03:13:43.256Z,7.20
2023-03-07T03:24:09.160Z,6.47
2023-03-07T03:34:31.981Z,6.18
2023-03-07T03:44:53.328Z,6.90
2023-03-07T03:55:14.939Z,7.43
2023-03-07T04:05:36.328Z,6.90
2023-03-07T04:15:58.054Z,6.45
2023-03-07T04:26:19.750Z,7.68
2023-03-07T04:36:40.982Z,7.18
2023-03-07T04:47:02.514Z,7.20
2023-03-07T04:57:27.111Z,6.97
2023-03-07T05:07:49.262Z,6.35
2023-03-07T05:18:11.055Z,7.15
2023-03-07T05:28:32.450Z,7.25
2023-03-07T05:38:56.496Z,6.70
2023-03-07T05:49:19.135Z,6.63
2023-03-07T05:59:40.803Z,6.55
2023-03-07T06:10:02.262Z,7.07
2023-03-07T06:20:23.505Z,6.65
2023-03-07T06:30:48.278Z,6.78
2023-03-07T06:41:10.252Z,6.03
2023-03-07T06:51:32.243Z,6.32
2023-03-07T07:01:54.485Z,6.57
2023-03-07T07:12:19.049Z,6.65
2023-03-07T07:22:41.346Z,7.63
2023-03-07T07:33:03.915Z,7.00
2023-03-07T07:43:25.082Z,6.93
2023-03-07T07:54:02.763Z,8.10
2023-03-07T08:04:24.007Z,7.20
2023-03-07T08:14:45.087Z,7.05
2023-03-07T08:25:11.166Z,7.13
2023-03-07T08:35:32.402Z,7.33
2023-03-07T08:45:53.600Z,6.97
2023-03-07T08:56:17.385Z,7.75
2023-03-07T09:06:38.788Z,6.60
2023-03-07T09:17:00.281Z,6.72
2023-03-07T09:27:21.824Z,6.60
2023-03-07T09:37:42.797Z,6.97
2023-03-07T09:48:10.384Z,6.35
2023-03-07T09:58:31.861Z,6.10
2023-03-07T10:08:53.918Z,5.75
2023-03-07T10:19:23.963Z,5.70
2023-03-07T10:29:51.415Z,5.45
2023-03-07T10:40:34.954Z,5.07
2023-03-07T10:51:02.403Z,5.57
2023-03-07T11:01:25.642Z,5.05
2023-03-07T11:11:59.516Z,4.43
2023-03-07T11:22:20.765Z,5.03
2023-03-07T11:32:58.731Z,4.45
2023-03-07T11:43:23.398Z,4.40
2023-03-07T11:54:14.543Z,4.57
2023-03-07T12:04:54.801Z,4.15
2023-03-07T12:15:32.801Z,3.97
2023-03-07T12:25:59.268Z,4.55
2023-03-07T12:36:43.432Z,3.72
2023-03-07T12:47:12.473Z,3.83
2023-03-07T12:57:37.866Z,3.38
2023-03-07T13:08:00.645Z,3.80
2023-03-07T13:18:27.932Z,4.53
2023-03-07T13:28:51.520Z,3.42
2023-03-07T13:39:38.265Z,3.35
2023-03-07T13:49:59.549Z,4.00
2023-03-07T14:00:28.356Z,3.53
2023-03-07T14:10:50.063Z,3.70
2023-03-07T14:21:18.022Z,3.10
2023-03-07T14:31:42.026Z,3.03
2023-03-07T14:42:18.464Z,3.15
2023-03-07T14:52:39.326Z,3.40
2023-03-07T15:03:08.503Z,2.97
2023-03-07T15:13:41.771Z,3.20
2023-03-07T15:24:03.352Z,3.00
2023-03-07T15:34:28.706Z,3.20
2023-03-07T15:44:54.992Z,3.28
2023-03-07T15:55:20.880Z,2.88
2023-03-07T16:05:42.213Z,3.00
2023-03-07T16:16:07.599Z,2.88
2023-03-07T16:26:28.735Z,3.25
2023-03-07T16:36:50.074Z,3.22
2023-03-07T16:47:18.181Z,3.35
2023-03-07T16:57:40.513Z,3.40
2023-03-07T17:08:01.876Z,3.78
2023-03-07T17:18:23.479Z,3.33
2023-03-07T17:28:45.347Z,4.00
2023-03-07T17:39:09.120Z,3.50
2023-03-07T17:49:35.433Z,4.40
2023-03-07T17:59:56.717Z,4.20
2023-03-07T18:10:17.889Z,4.47
2023-03-07T18:20:39.253Z,4.68
2023-03-07T18:31:07.475Z,4.72
2023-03-07T18:41:29.226Z,3.83
2023-03-07T18:51:50.441Z,4.50
2023-03-07T19:02:11.754Z,4.30
2023-03-07T19:12:32.784Z,4.38
2023-03-07T19:22:54.686Z,4.43
2023-03-07T19:33:15.692Z,4.70
2023-03-07T19:43:37.147Z,5.05
2023-03-07T19:53:58.821Z,4.50
2023-03-07T20:04:19.820Z,4.38
2023-03-07T20:14:43.339Z,4.72
2023-03-07T20:25:05.078Z,4.22
2023-03-07T20:35:26.285Z,3.90
2023-03-07T20:45:47.435Z,4.18
2023-03-07T20:56:08.413Z,3.75
2023-03-07T21:06:29.450Z,4.22
2023-03-07T21:16:50.789Z,3.80
2023-03-07T21:27:12.147Z,3.60
2023-03-07T21:37:35.457Z,3.50
2023-03-07T21:47:56.946Z,4.00
2023-03-07T21:58:19.441Z,3.60
2023-03-07T22:08:40.878Z,3.80
2023-03-07T22:19:02.216Z,4.03
2023-03-07T22:29:23.497Z,3.58
2023-03-07T22:39:44.450Z,3.40
2023-03-07T22:50:06.891Z,3.40
2023-03-07T23:00:28.552Z,3.65
2023-03-07T23:10:49.527Z,3.30
2023-03-07T23:21:12.994Z,3.38
2023-03-07T23:31:36.740Z,3.80
2023-03-07T23:41:57.910Z,2.97
2023-03-07T23:52:19.260Z,2.83
